createdAt,value
2022-12-26T00:00:13.053Z,14.27
2022-12-26T00:01:12.963Z,14.16
2022-12-26T00:02:12.939Z,14.19
2022-12-26T00:03:12.988Z,14.12
2022-12-26T00:04:52.254Z,14.16
2022-12-26T00:05:12.858Z,14.10
2022-12-26T00:07:12.826Z,13.98
2022-12-26T00:08:12.799Z,13.98
2022-12-26T00:09:12.782Z,13.92
2022-12-26T00:10:12.754Z,13.99
2022-12-26T00:11:12.727Z,13.99
2022-12-26T00:12:12.712Z,13.99
2022-12-26T00:13:39.739Z,13.92
2022-12-26T00:14:12.682Z,13.92
2022-12-26T00:15:12.642Z,13.89
2022-12-26T00:16:12.635Z,13.83
2022-12-26T00:17:12.597Z,13.95
2022-12-26T00:18:12.584Z,13.92
2022-12-26T00:19:12.549Z,13.81
2022-12-26T00:20:12.539Z,13.91
2022-12-26T00:21:12.504Z,13.95
2022-12-26T00:22:12.510Z,14.07
2022-12-26T00:23:12.463Z,13.96
2022-12-26T00:24:12.455Z,13.98
2022-12-26T00:25:12.416Z,13.98
2022-12-26T00:26:12.410Z,13.99
2022-12-26T00:27:12.394Z,13.87
2022-12-26T00:28:12.361Z,13.92
2022-12-26T00:29:12.346Z,13.87
2022-12-26T00:30:12.313Z,13.87
2022-12-26T00:31:12.297Z,13.95
2022-12-26T00:32:12.277Z,13.89
2022-12-26T00:33:12.258Z,13.91
2022-12-26T00:34:12.234Z,13.94
2022-12-26T00:35:12.224Z,13.95
2022-12-26T00:36:12.192Z,13.91
2022-12-26T00:37:12.156Z,13.87
2022-12-26T00:38:12.145Z,13.92
2022-12-26T00:39:12.116Z,13.89
2022-12-26T00:40:12.103Z,13.88
2022-12-26T00:41:12.063Z,13.84
2022-12-26T00:42:12.053Z,13.84
2022-12-26T00:43:12.020Z,13.77
2022-12-26T00:44:12.015Z,13.79
2022-12-26T00:45:11.977Z,13.81
2022-12-26T00:46:12.027Z,13.77
2022-12-26T00:47:12.031Z,13.91
2022-12-26T00:48:11.921Z,13.98
2022-12-26T00:49:11.915Z,13.89
2022-12-26T00:50:15.621Z,13.91
2022-12-26T00:51:11.863Z,13.84
2022-12-26T00:52:11.835Z,13.80
2022-12-26T00:53:11.800Z,13.80
2022-12-26T00:54:11.786Z,13.77
2022-12-26T00:55:11.755Z,13.77
2022-12-26T00:56:11.781Z,13.80
2022-12-26T00:57:11.708Z,13.89
2022-12-26T00:58:11.698Z,13.92
2022-12-26T00:59:11.674Z,13.89
2022-12-26T01:00:11.657Z,13.74
2022-12-26T01:01:11.839Z,13.81
2022-12-26T01:02:11.664Z,13.63
2022-12-26T01:03:11.626Z,13.67
2022-12-26T01:04:11.578Z,13.69
2022-12-26T01:05:11.574Z,13.65
2022-12-26T01:06:11.543Z,13.81
2022-12-26T01:07:11.505Z,13.80
2022-12-26T01:08:21.212Z,13.89
2022-12-26T01:09:11.454Z,13.89
2022-12-26T01:10:11.439Z,13.91
2022-12-26T01:11:11.408Z,13.76
2022-12-26T01:12:11.384Z,13.89
2022-12-26T01:13:11.383Z,13.76
2022-12-26T01:14:11.391Z,13.84
2022-12-26T01:15:11.307Z,13.81
2022-12-26T01:16:11.452Z,13.81
2022-12-26T01:17:11.269Z,13.83
2022-12-26T01:18:11.258Z,13.80
2022-12-26T01:19:11.234Z,13.88
2022-12-26T01:20:11.204Z,13.79
2022-12-26T01:21:11.188Z,14.09
2022-12-26T01:22:11.165Z,14.10
2022-12-26T01:23:11.157Z,14.16
2022-12-26T01:24:11.121Z,14.20
2022-12-26T01:25:11.085Z,14.25
2022-12-26T01:26:18.299Z,14.24
2022-12-26T01:27:11.052Z,14.28
2022-12-26T01:28:11.027Z,14.13
2022-12-26T01:29:11.003Z,14.07
2022-12-26T01:30:10.992Z,14.04
2022-12-26T01:31:11.035Z,14.17
2022-12-26T01:32:11.008Z,14.17
2022-12-26T01:33:10.939Z,14.24
2022-12-26T01:34:10.906Z,14.20
2022-12-26T01:35:10.871Z,14.19
2022-12-26T01:36:10.882Z,14.14
2022-12-26T01:37:10.822Z,14.10
2022-12-26T01:38:10.809Z,13.96
2022-12-26T01:39:10.780Z,13.99
2022-12-26T01:40:10.765Z,14.02
2022-12-26T01:41:10.740Z,14.01
2022-12-26T01:42:10.717Z,13.94
2022-12-26T01:43:10.693Z,13.80
2022-12-26T01:44:10.676Z,13.84
2022-12-26T01:45:10.652Z,14.02
2022-12-26T01:46:10.715Z,14.10
2022-12-26T01:47:10.627Z,14.06
2022-12-26T01:48:10.590Z,14.09
2022-12-26T01:49:10.560Z,14.01
2022-12-26T01:50:10.549Z,14.07
2022-12-26T01:51:10.514Z,14.06
2022-12-26T01:52:10.504Z,14.02
2022-12-26T01:53:10.488Z,13.94
2022-12-26T01:54:41.254Z,13.94
2022-12-26T01:55:10.432Z,13.94
2022-12-26T01:56:10.408Z,13.88
2022-12-26T01:57:10.401Z,13.83
2022-12-26T01:58:10.382Z,13.91
2022-12-26T01:59:10.363Z,13.89
2022-12-26T02:00:10.328Z,13.98
2022-12-26T02:01:10.456Z,14.04
2022-12-26T02:02:10.467Z,13.95
2022-12-26T02:03:10.293Z,14.09
2022-12-26T02:04:10.229Z,14.12
2022-12-26T02:05:10.220Z,14.16
2022-12-26T02:06:10.187Z,14.12
2022-12-26T02:07:10.183Z,14.04
2022-12-26T02:08:10.153Z,14.06
2022-12-26T02:09:10.112Z,14.13
2022-12-26T02:10:10.112Z,14.10
2022-12-26T02:11:10.122Z,14.13
2022-12-26T02:12:36.388Z,14.16
2022-12-26T02:13:10.036Z,14.20
2022-12-26T02:14:10.064Z,14.34
2022-12-26T02:15:10.072Z,14.29
2022-12-26T02:16:10.040Z,14.29
2022-12-26T02:17:10.097Z,14.31
2022-12-26T02:18:09.961Z,14.42
2022-12-26T02:19:10.011Z,14.49
2022-12-26T02:20:09.924Z,14.37
2022-12-26T02:21:09.987Z,14.37
2022-12-26T02:22:09.874Z,14.29
2022-12-26T02:23:09.815Z,14.19
2022-12-26T02:24:09.818Z,14.21
2022-12-26T02:25:09.769Z,14.24
2022-12-26T02:26:09.796Z,14.12
2022-12-26T02:27:09.726Z,14.12
2022-12-26T02:28:09.704Z,14.17
2022-12-26T02:29:09.676Z,14.07
2022-12-26T02:30:09.660Z,14.07
2022-12-26T02:31:09.670Z,14.06
2022-12-26T02:32:09.705Z,13.99
2022-12-26T02:33:09.603Z,14.07
2022-12-26T02:34:09.594Z,14.07
2022-12-26T02:35:09.555Z,14.06
2022-12-26T02:36:09.536Z,13.98
2022-12-26T02:37:09.510Z,14.02
2022-12-26T02:38:09.479Z,14.09
2022-12-26T02:39:44.029Z,14.10
2022-12-26T02:40:09.434Z,13.98
2022-12-26T02:41:09.417Z,13.99
2022-12-26T02:42:09.426Z,13.98
2022-12-26T02:43:09.386Z,14.01
2022-12-26T02:44:09.357Z,14.04
2022-12-26T02:45:09.327Z,13.98
2022-12-26T02:46:09.384Z,13.95
2022-12-26T02:47:09.300Z,13.96
2022-12-26T02:48:09.261Z,13.88
2022-12-26T02:49:09.253Z,13.89
2022-12-26T02:50:09.217Z,13.96
2022-12-26T02:51:09.217Z,13.91
2022-12-26T02:52:09.187Z,13.96
2022-12-26T02:53:09.201Z,13.83
2022-12-26T02:54:09.131Z,13.79
2022-12-26T02:55:09.123Z,13.77
2022-12-26T02:56:09.082Z,13.81
2022-12-26T02:57:09.076Z,13.77
2022-12-26T02:58:09.050Z,13.80
2022-12-26T02:59:09.027Z,13.83
2022-12-26T03:00:09.008Z,13.89
2022-12-26T03:01:09.208Z,13.87
2022-12-26T03:02:09.116Z,13.92
2022-12-26T03:03:08.997Z,13.87
2022-12-26T03:04:08.928Z,13.99
2022-12-26T03:05:08.890Z,14.01
2022-12-26T03:06:08.874Z,13.88
2022-12-26T03:07:08.844Z,13.95
2022-12-26T03:08:08.847Z,13.81
2022-12-26T03:09:08.834Z,13.71
2022-12-26T03:10:08.804Z,13.67
2022-12-26T03:11:08.778Z,13.56
2022-12-26T03:12:08.734Z,13.52
2022-12-26T03:13:08.713Z,13.54
2022-12-26T03:14:08.720Z,13.49
2022-12-26T03:15:08.715Z,13.55
2022-12-26T03:16:08.646Z,13.54
2022-12-26T03:17:08.703Z,13.52
2022-12-26T03:18:08.619Z,13.49
2022-12-26T03:19:08.596Z,13.46
2022-12-26T03:20:08.557Z,13.49
2022-12-26T03:21:08.550Z,13.51
2022-12-26T03:22:08.508Z,13.56
2022-12-26T03:23:08.493Z,13.49
2022-12-26T03:24:08.486Z,13.43
2022-12-26T03:25:08.454Z,13.38
2022-12-26T03:26:08.421Z,13.38
2022-12-26T03:27:08.417Z,13.27
2022-12-26T03:28:08.391Z,13.29
2022-12-26T03:29:08.360Z,13.30
2022-12-26T03:30:08.335Z,13.24
2022-12-26T03:31:08.411Z,13.24
2022-12-26T03:32:08.297Z,13.33
2022-12-26T03:33:08.275Z,13.36
2022-12-26T03:34:08.250Z,13.30
2022-12-26T03:35:08.321Z,13.37
2022-12-26T03:36:08.199Z,13.29
2022-12-26T03:37:08.190Z,13.25
2022-12-26T03:38:08.181Z,13.27
2022-12-26T03:39:08.239Z,13.14
2022-12-26T03:40:08.122Z,13.22
2022-12-26T03:41:08.095Z,13.15
2022-12-26T03:42:08.086Z,13.11
2022-12-26T03:43:08.046Z,13.00
2022-12-26T03:44:08.020Z,13.03
2022-12-26T03:45:08.006Z,13.03
2022-12-26T03:46:08.039Z,13.02
2022-12-26T03:47:07.957Z,13.07
2022-12-26T03:48:07.946Z,13.07
2022-12-26T03:49:07.909Z,13.09
2022-12-26T03:50:07.886Z,13.17
2022-12-26T03:51:07.866Z,13.15
2022-12-26T03:52:07.860Z,13.14
2022-12-26T03:53:07.827Z,13.21
2022-12-26T03:54:07.792Z,13.11
2022-12-26T03:55:07.789Z,13.21
2022-12-26T03:56:07.804Z,13.20
2022-12-26T03:57:07.742Z,13.14
2022-12-26T03:58:07.705Z,13.15
2022-12-26T03:59:07.719Z,13.21
2022-12-26T04:00:07.682Z,13.06
2022-12-26T04:01:07.781Z,13.04
2022-12-26T04:02:07.797Z,13.03
2022-12-26T04:03:07.616Z,13.02
2022-12-26T04:04:07.637Z,12.99
2022-12-26T04:05:07.549Z,12.97
2022-12-26T04:06:07.531Z,13.00
2022-12-26T04:07:07.511Z,13.03
2022-12-26T04:08:07.485Z,13.02
2022-12-26T04:09:07.462Z,13.06
2022-12-26T04:10:07.438Z,13.07
2022-12-26T04:11:07.418Z,13.02
2022-12-26T04:12:07.414Z,12.99
2022-12-26T04:13:07.390Z,12.96
2022-12-26T04:14:07.345Z,12.89
2022-12-26T04:15:07.339Z,12.84
2022-12-26T04:16:07.319Z,12.85
2022-12-26T04:17:07.281Z,12.82
2022-12-26T04:18:07.266Z,12.85
2022-12-26T04:19:07.235Z,12.88
2022-12-26T04:20:07.210Z,12.87
2022-12-26T04:21:07.202Z,13.07
2022-12-26T04:22:07.177Z,13.11
2022-12-26T04:23:07.150Z,13.17
2022-12-26T04:24:07.130Z,13.27
2022-12-26T04:25:07.106Z,13.41
2022-12-26T04:26:07.100Z,13.55
2022-12-26T04:27:07.072Z,13.44
2022-12-26T04:28:07.038Z,13.52
2022-12-26T04:29:07.022Z,13.38
2022-12-26T04:30:07.008Z,13.54
2022-12-26T04:31:07.001Z,13.54
2022-12-26T04:32:06.935Z,13.62
2022-12-26T04:33:06.928Z,13.58
2022-12-26T04:34:06.892Z,13.67
2022-12-26T04:35:06.873Z,13.77
2022-12-26T04:36:06.864Z,13.81
2022-12-26T04:37:06.828Z,13.94
2022-12-26T04:38:06.816Z,13.98
2022-12-26T04:39:06.779Z,13.99
2022-12-26T04:40:06.751Z,13.88
2022-12-26T04:41:06.736Z,13.88
2022-12-26T04:42:06.713Z,13.80
2022-12-26T04:43:48.111Z,13.81
2022-12-26T04:44:06.666Z,13.77
2022-12-26T04:45:06.647Z,13.80
2022-12-26T04:46:06.662Z,13.84
2022-12-26T04:47:06.600Z,13.88
2022-12-26T04:48:06.574Z,13.84
2022-12-26T04:49:06.570Z,14.10
2022-12-26T04:50:06.527Z,14.35
2022-12-26T04:51:06.509Z,14.19
2022-12-26T04:52:06.483Z,14.24
2022-12-26T04:53:06.477Z,14.16
2022-12-26T04:54:06.446Z,14.09
2022-12-26T04:55:06.423Z,13.96
2022-12-26T04:56:06.394Z,13.91
2022-12-26T04:57:06.373Z,13.83
2022-12-26T04:58:06.358Z,13.69
2022-12-26T04:59:06.340Z,13.58
2022-12-26T05:00:06.310Z,13.61
2022-12-26T05:01:06.315Z,13.55
2022-12-26T05:02:06.343Z,13.54
2022-12-26T05:03:06.325Z,13.56
2022-12-26T05:04:06.219Z,13.56
2022-12-26T05:05:06.205Z,13.55
2022-12-26T05:06:06.178Z,13.56
2022-12-26T05:07:06.154Z,13.52
2022-12-26T05:08:06.149Z,13.44
2022-12-26T05:09:06.119Z,13.44
2022-12-26T05:10:06.111Z,13.33
2022-12-26T05:11:06.069Z,13.51
2022-12-26T05:12:06.053Z,13.62
2022-12-26T05:13:06.043Z,13.80
2022-12-26T05:14:06.097Z,13.80
2022-12-26T05:15:05.987Z,13.89
2022-12-26T05:16:06.017Z,13.96
2022-12-26T05:17:05.923Z,13.95
2022-12-26T05:18:05.906Z,14.09
2022-12-26T05:19:05.895Z,14.04
2022-12-26T05:20:05.865Z,14.02
2022-12-26T05:21:05.844Z,14.16
2022-12-26T05:22:05.837Z,14.16
2022-12-26T05:23:05.815Z,14.07
2022-12-26T05:24:05.790Z,14.02
2022-12-26T05:25:05.744Z,14.07
2022-12-26T05:26:05.743Z,14.12
2022-12-26T05:27:05.709Z,14.24
2022-12-26T05:28:05.700Z,14.24
2022-12-26T05:29:05.667Z,14.19
2022-12-26T05:30:05.643Z,14.13
2022-12-26T05:31:05.681Z,14.12
2022-12-26T05:32:05.589Z,14.21
2022-12-26T05:33:05.570Z,14.24
2022-12-26T05:34:05.591Z,14.32
2022-12-26T05:35:05.523Z,14.34
2022-12-26T05:36:05.520Z,14.38
2022-12-26T05:37:05.476Z,14.20
2022-12-26T05:38:05.449Z,14.21
2022-12-26T05:39:05.432Z,14.25
2022-12-26T05:40:05.422Z,14.21
2022-12-26T05:41:05.389Z,14.21
2022-12-26T05:42:05.370Z,14.16
2022-12-26T05:43:05.350Z,14.12
2022-12-26T05:44:05.327Z,14.25
2022-12-26T05:45:05.305Z,14.21
2022-12-26T05:46:05.337Z,14.19
2022-12-26T05:47:05.386Z,14.31
2022-12-26T05:48:05.269Z,14.25
2022-12-26T05:49:05.228Z,14.25
2022-12-26T05:50:05.190Z,14.10
2022-12-26T05:51:05.179Z,14.01
2022-12-26T05:52:05.151Z,14.09
2022-12-26T05:53:05.132Z,14.01
2022-12-26T05:54:05.115Z,14.01
2022-12-26T05:55:05.102Z,13.95
2022-12-26T05:56:05.071Z,13.87
2022-12-26T05:57:05.043Z,13.91
2022-12-26T05:58:05.031Z,13.94
2022-12-26T05:59:04.997Z,14.06
2022-12-26T06:00:04.994Z,14.06
2022-12-26T06:01:04.973Z,14.04
2022-12-26T06:02:05.172Z,14.06
2022-12-26T06:03:04.989Z,13.98
2022-12-26T06:04:04.922Z,13.98
2022-12-26T06:05:04.859Z,13.89
2022-12-26T06:06:04.843Z,14.06
2022-12-26T06:07:04.822Z,13.95
2022-12-26T06:08:04.805Z,13.89
2022-12-26T06:09:04.780Z,13.87
2022-12-26T06:10:04.746Z,13.84
2022-12-26T06:11:04.730Z,13.87
2022-12-26T06:12:04.704Z,13.84
2022-12-26T06:13:04.687Z,13.87
2022-12-26T06:14:04.668Z,13.92
2022-12-26T06:15:04.640Z,13.92
2022-12-26T06:16:04.708Z,13.92
2022-12-26T06:17:04.602Z,13.87
2022-12-26T06:18:04.592Z,13.81
2022-12-26T06:19:04.562Z,13.92
2022-12-26T06:20:04.528Z,13.94
2022-12-26T06:21:04.505Z,13.88
2022-12-26T06:22:04.484Z,13.87
2022-12-26T06:23:04.496Z,13.80
2022-12-26T06:24:04.442Z,13.81
2022-12-26T06:25:04.427Z,13.87
2022-12-26T06:26:04.414Z,13.79
2022-12-26T06:27:04.372Z,13.80
2022-12-26T06:28:04.351Z,13.88
2022-12-26T06:29:04.353Z,13.99
2022-12-26T06:30:04.329Z,13.95
2022-12-26T06:31:04.362Z,14.02
2022-12-26T06:32:04.355Z,13.99
2022-12-26T06:33:04.244Z,14.02
2022-12-26T06:34:04.228Z,13.98
2022-12-26T06:35:04.199Z,13.96
2022-12-26T06:36:04.182Z,13.91
2022-12-26T06:37:04.164Z,13.99
2022-12-26T06:38:04.132Z,13.95
2022-12-26T06:39:04.118Z,13.91
2022-12-26T06:40:04.080Z,13.89
2022-12-26T06:41:04.080Z,13.91
2022-12-26T06:42:04.043Z,13.88
2022-12-26T06:43:04.023Z,13.87
2022-12-26T06:44:04.034Z,13.79
2022-12-26T06:45:03.982Z,13.81
2022-12-26T06:46:03.950Z,13.77
2022-12-26T06:47:03.974Z,13.77
2022-12-26T06:48:03.915Z,13.80
2022-12-26T06:49:03.897Z,13.76
2022-12-26T06:50:03.882Z,13.80
2022-12-26T06:51:03.855Z,13.80
2022-12-26T06:52:03.821Z,13.71
2022-12-26T06:53:03.796Z,13.63
2022-12-26T06:54:03.781Z,13.61
2022-12-26T06:55:03.752Z,13.55
2022-12-26T06:56:03.735Z,13.40
2022-12-26T06:57:03.712Z,13.41
2022-12-26T06:58:03.695Z,13.40
2022-12-26T06:59:03.684Z,13.24
2022-12-26T07:00:03.645Z,13.17
2022-12-26T07:01:03.742Z,13.17
2022-12-26T07:02:03.691Z,13.07
2022-12-26T07:03:03.584Z,13.03
2022-12-26T07:04:03.563Z,13.02
2022-12-26T07:05:03.532Z,13.00
2022-12-26T07:06:03.517Z,12.85
2022-12-26T07:07:03.503Z,12.84
2022-12-26T07:08:03.465Z,12.85
2022-12-26T07:09:03.445Z,12.84
2022-12-26T07:10:03.425Z,12.82
2022-12-26T07:11:03.417Z,12.81
2022-12-26T07:12:03.374Z,12.81
2022-12-26T07:13:03.343Z,12.71
2022-12-26T07:14:03.342Z,12.69
2022-12-26T07:15:03.302Z,12.60
2022-12-26T07:16:03.337Z,12.59
2022-12-26T07:17:03.266Z,12.52
2022-12-26T07:18:03.238Z,12.52
2022-12-26T07:19:03.210Z,12.41
2022-12-26T07:20:03.183Z,12.42
2022-12-26T07:21:03.191Z,12.42
2022-12-26T07:22:03.147Z,12.45
2022-12-26T07:23:03.132Z,12.42
2022-12-26T07:24:03.097Z,12.44
2022-12-26T07:25:03.084Z,12.42
2022-12-26T07:26:03.051Z,12.41
2022-12-26T07:27:03.021Z,12.45
2022-12-26T07:28:03.014Z,12.45
2022-12-26T07:29:02.979Z,12.46
2022-12-26T07:30:02.960Z,12.44
2022-12-26T07:31:02.997Z,12.45
2022-12-26T07:32:02.997Z,12.39
2022-12-26T07:33:02.891Z,12.51
2022-12-26T07:34:02.870Z,12.51
2022-12-26T07:35:02.839Z,12.54
2022-12-26T07:36:02.825Z,12.60
2022-12-26T07:37:02.811Z,12.67
2022-12-26T07:38:02.775Z,12.63
2022-12-26T07:39:02.748Z,12.71
2022-12-26T07:40:02.731Z,12.63
2022-12-26T07:41:02.707Z,12.59
2022-12-26T07:42:02.689Z,12.66
2022-12-26T07:43:02.652Z,12.64
2022-12-26T07:44:02.636Z,12.66
2022-12-26T07:45:02.645Z,12.64
2022-12-26T07:46:02.711Z,12.66
2022-12-26T07:47:02.587Z,12.69
2022-12-26T07:48:02.583Z,12.69
2022-12-26T07:49:02.578Z,12.71
2022-12-26T07:50:02.504Z,12.71
2022-12-26T07:51:02.465Z,12.66
2022-12-26T07:52:02.444Z,12.62
2022-12-26T07:53:02.420Z,12.62
2022-12-26T07:54:07.248Z,12.52
2022-12-26T07:55:02.376Z,12.52
2022-12-26T07:56:02.358Z,12.51
2022-12-26T07:57:29.606Z,12.49
2022-12-26T07:58:02.310Z,12.39
2022-12-26T07:59:02.284Z,12.52
2022-12-26T08:00:02.259Z,12.42
2022-12-26T08:01:02.361Z,12.42
2022-12-26T08:02:02.516Z,12.44
2022-12-26T08:03:07.117Z,12.49
2022-12-26T08:04:02.312Z,12.52
2022-12-26T08:05:02.152Z,12.52
2022-12-26T08:06:02.130Z,12.48
2022-12-26T08:07:02.118Z,12.51
2022-12-26T08:08:02.211Z,12.51
2022-12-26T08:09:02.068Z,12.52
2022-12-26T08:10:02.045Z,12.48
2022-12-26T08:11:02.225Z,12.54
2022-12-26T08:12:02.004Z,12.49
2022-12-26T08:13:01.979Z,12.63
2022-12-26T08:14:01.940Z,12.54
2022-12-26T08:15:01.910Z,12.56
2022-12-26T08:16:01.913Z,12.52
2022-12-26T08:17:01.947Z,12.57
2022-12-26T08:18:01.913Z,12.57
2022-12-26T08:19:01.823Z,12.62
2022-12-26T08:20:01.902Z,12.52
2022-12-26T08:21:01.775Z,12.48
2022-12-26T08:22:01.755Z,12.57
2022-12-26T08:23:01.856Z,12.38
2022-12-26T08:24:01.756Z,12.42
2022-12-26T08:25:01.681Z,12.44
2022-12-26T08:26:01.662Z,12.51
2022-12-26T08:27:02.380Z,12.52
2022-12-26T08:28:01.612Z,12.52
2022-12-26T08:29:01.588Z,12.54
2022-12-26T08:30:01.589Z,12.52
2022-12-26T08:31:01.547Z,12.52
2022-12-26T08:32:01.527Z,12.52
2022-12-26T08:33:01.500Z,12.59
2022-12-26T08:34:01.476Z,12.60
2022-12-26T08:35:01.446Z,12.81
2022-12-26T08:36:01.448Z,12.74
2022-12-26T08:37:01.402Z,12.67
2022-12-26T08:38:01.376Z,12.69
2022-12-26T08:39:01.366Z,12.69
2022-12-26T08:40:01.335Z,12.71
2022-12-26T08:41:01.414Z,12.67
2022-12-26T08:42:01.297Z,12.57
2022-12-26T08:43:21.329Z,12.69
2022-12-26T08:44:26.795Z,12.66
2022-12-26T08:45:01.225Z,12.62
2022-12-26T08:46:01.267Z,12.63
2022-12-26T08:47:01.195Z,12.63
2022-12-26T08:48:01.147Z,12.77
2022-12-26T08:49:01.124Z,12.81
2022-12-26T08:50:01.148Z,12.81
2022-12-26T08:51:01.074Z,12.77
2022-12-26T08:52:01.063Z,12.75
2022-12-26T08:53:01.044Z,12.70
2022-12-26T08:54:01.013Z,12.81
2022-12-26T08:55:00.980Z,12.74
2022-12-26T08:56:00.958Z,12.78
2022-12-26T08:57:00.930Z,12.77
2022-12-26T08:58:00.978Z,12.77
2022-12-26T08:59:00.884Z,12.74
2022-12-26T09:00:00.868Z,12.69
2022-12-26T09:01:00.889Z,12.75
2022-12-26T09:02:00.940Z,12.71
2022-12-26T09:03:00.826Z,12.75
2022-12-26T09:04:00.785Z,12.75
2022-12-26T09:05:00.752Z,12.78
2022-12-26T09:06:05.701Z,12.63
2022-12-26T09:07:00.709Z,12.69
2022-12-26T09:08:00.686Z,12.64
2022-12-26T09:09:00.661Z,12.57
2022-12-26T09:10:00.637Z,12.60
2022-12-26T09:11:00.605Z,12.60
2022-12-26T09:12:00.590Z,12.64
2022-12-26T09:13:00.560Z,12.64
2022-12-26T09:14:00.550Z,12.60
2022-12-26T09:15:00.546Z,12.67
2022-12-26T09:16:00.495Z,12.74
2022-12-26T09:17:00.528Z,12.75
2022-12-26T09:18:00.450Z,12.64
2022-12-26T09:19:00.424Z,12.77
2022-12-26T09:20:00.409Z,12.77
2022-12-26T09:21:00.402Z,12.74
2022-12-26T09:22:00.385Z,12.66
2022-12-26T09:23:00.359Z,12.67
2022-12-26T09:24:00.369Z,12.78
2022-12-26T09:25:00.289Z,12.77
2022-12-26T09:26:00.267Z,12.75
2022-12-26T09:27:00.265Z,12.71
2022-12-26T09:28:00.238Z,12.71
2022-12-26T09:29:00.191Z,12.79
2022-12-26T09:30:00.170Z,12.71
2022-12-26T09:31:00.239Z,12.70
2022-12-26T09:32:00.127Z,12.74
2022-12-26T09:33:00.120Z,12.81
2022-12-26T09:34:00.119Z,12.79
2022-12-26T09:35:00.111Z,12.70
2022-12-26T09:36:04.602Z,12.71
2022-12-26T09:37:00.018Z,12.77
2022-12-26T09:37:59.989Z,12.64
2022-12-26T09:38:59.961Z,12.71
2022-12-26T09:39:59.945Z,12.71
2022-12-26T09:40:59.924Z,12.77
2022-12-26T09:41:59.909Z,12.69
2022-12-26T09:42:59.870Z,12.77
2022-12-26T09:43:59.873Z,12.77
2022-12-26T09:44:59.825Z,12.71
2022-12-26T09:45:59.835Z,12.74
2022-12-26T09:46:59.770Z,12.70
2022-12-26T09:47:59.765Z,12.66
2022-12-26T09:48:59.732Z,12.66
2022-12-26T09:49:59.706Z,12.64
2022-12-26T09:50:59.680Z,12.64
2022-12-26T09:51:59.666Z,12.71
2022-12-26T09:52:59.635Z,12.77
2022-12-26T09:53:59.642Z,12.71
2022-12-26T09:54:59.675Z,12.71
2022-12-26T09:55:59.588Z,12.77
2022-12-26T09:57:04.009Z,12.67
2022-12-26T09:57:59.556Z,12.63
2022-12-26T09:58:59.527Z,12.60
2022-12-26T09:59:59.580Z,12.64
2022-12-26T10:00:59.457Z,12.57
2022-12-26T10:01:59.518Z,12.54
2022-12-26T10:02:59.410Z,12.60
2022-12-26T10:03:59.395Z,12.62
2022-12-26T10:04:59.453Z,12.54
2022-12-26T10:05:59.356Z,12.62
2022-12-26T10:06:59.311Z,12.59
2022-12-26T10:07:59.348Z,12.59
2022-12-26T10:08:59.269Z,12.62
2022-12-26T10:09:59.252Z,12.67
2022-12-26T10:10:59.222Z,12.74
2022-12-26T10:11:59.208Z,12.70
2022-12-26T10:12:59.195Z,12.75
2022-12-26T10:13:59.157Z,12.63
2022-12-26T10:14:59.140Z,12.67
2022-12-26T10:15:59.311Z,12.69
2022-12-26T10:16:59.097Z,12.66
2022-12-26T10:17:59.069Z,12.70
2022-12-26T10:18:59.056Z,12.75
2022-12-26T10:19:59.025Z,12.69
2022-12-26T10:20:59.010Z,12.74
2022-12-26T10:21:58.976Z,12.67
2022-12-26T10:22:58.947Z,12.69
2022-12-26T10:23:58.932Z,12.69
2022-12-26T10:24:58.903Z,12.62
2022-12-26T10:25:58.890Z,12.64
2022-12-26T10:26:58.855Z,12.66
2022-12-26T10:27:58.835Z,12.57
2022-12-26T10:28:58.806Z,12.66
2022-12-26T10:29:58.789Z,12.71
2022-12-26T10:30:58.801Z,12.78
2022-12-26T10:31:58.745Z,12.81
2022-12-26T10:32:58.729Z,12.79
2022-12-26T10:33:58.717Z,12.88
2022-12-26T10:34:58.673Z,12.96
2022-12-26T10:35:58.662Z,12.88
2022-12-26T10:36:58.626Z,12.81
2022-12-26T10:37:58.631Z,12.84
2022-12-26T10:38:58.587Z,12.84
2022-12-26T10:39:58.621Z,12.92
2022-12-26T10:40:58.536Z,12.84
2022-12-26T10:41:58.538Z,12.77
2022-12-26T10:42:58.496Z,12.85
2022-12-26T10:43:58.466Z,12.77
2022-12-26T10:44:58.447Z,12.88
2022-12-26T10:45:58.491Z,12.79
2022-12-26T10:46:58.404Z,12.82
2022-12-26T10:47:58.394Z,12.84
2022-12-26T10:48:58.358Z,12.81
2022-12-26T10:49:58.332Z,12.82
2022-12-26T10:50:58.298Z,12.79
2022-12-26T10:51:58.282Z,12.70
2022-12-26T10:52:58.261Z,12.84
2022-12-26T10:53:58.236Z,12.84
2022-12-26T10:55:28.857Z,12.81
2022-12-26T10:55:58.193Z,12.85
2022-12-26T10:56:58.172Z,12.85
2022-12-26T10:57:58.151Z,12.81
2022-12-26T10:58:58.118Z,12.82
2022-12-26T10:59:58.221Z,12.71
2022-12-26T11:00:58.072Z,12.85
2022-12-26T11:02:03.345Z,12.84
2022-12-26T11:02:58.102Z,12.93
2022-12-26T11:03:58.012Z,12.93
2022-12-26T11:06:13.407Z,12.97
2022-12-26T11:06:57.943Z,13.02
2022-12-26T11:07:57.924Z,13.04
2022-12-26T11:08:57.899Z,13.06
2022-12-26T11:09:57.874Z,13.03
2022-12-26T11:10:57.848Z,13.18
2022-12-26T11:11:57.827Z,13.20
2022-12-26T11:12:57.810Z,13.27
2022-12-26T11:14:02.154Z,13.27
2022-12-26T11:14:57.759Z,13.40
2022-12-26T11:15:57.781Z,13.46
2022-12-26T11:16:57.725Z,13.52
2022-12-26T11:17:57.702Z,13.51
2022-12-26T11:18:57.670Z,13.51
2022-12-26T11:19:57.649Z,13.44
2022-12-26T11:20:57.675Z,13.49
2022-12-26T11:21:57.702Z,13.56
2022-12-26T11:22:57.690Z,13.54
2022-12-26T11:23:57.584Z,13.51
2022-12-26T11:24:57.541Z,13.54
2022-12-26T11:25:57.572Z,13.52
2022-12-26T11:26:57.519Z,13.55
2022-12-26T11:27:57.478Z,13.54
2022-12-26T11:28:57.460Z,13.56
2022-12-26T11:29:57.425Z,13.52
2022-12-26T11:30:57.442Z,13.69
2022-12-26T11:31:57.385Z,13.70
2022-12-26T11:32:57.372Z,13.62
2022-12-26T11:33:57.355Z,13.58
2022-12-26T11:34:57.319Z,13.59
2022-12-26T11:35:57.291Z,13.56
2022-12-26T11:36:57.272Z,13.69
2022-12-26T11:37:57.250Z,13.55
2022-12-26T11:38:57.274Z,13.63
2022-12-26T11:39:57.229Z,13.63
2022-12-26T11:40:57.194Z,13.65
2022-12-26T11:41:57.177Z,13.65
2022-12-26T11:42:57.146Z,13.63
2022-12-26T11:43:57.161Z,13.67
2022-12-26T11:44:57.117Z,13.69
2022-12-26T11:45:57.085Z,13.70
2022-12-26T11:46:57.162Z,13.69
2022-12-26T11:47:57.041Z,13.65
2022-12-26T11:48:57.022Z,13.58
2022-12-26T11:49:56.997Z,13.59
2022-12-26T11:50:56.971Z,13.54
2022-12-26T11:51:59.559Z,13.54
2022-12-26T11:52:56.931Z,13.67
2022-12-26T11:53:56.905Z,13.55
2022-12-26T11:54:56.890Z,13.51
2022-12-26T11:55:56.881Z,13.54
2022-12-26T11:56:56.842Z,13.63
2022-12-26T11:57:58.588Z,13.55
2022-12-26T11:58:56.798Z,13.62
2022-12-26T11:59:56.778Z,13.56
2022-12-26T12:00:56.754Z,13.61
2022-12-26T12:01:56.808Z,13.56
2022-12-26T12:02:56.751Z,13.62
2022-12-26T12:03:56.717Z,13.62
2022-12-26T12:04:56.666Z,13.56
2022-12-26T12:05:56.647Z,13.61
2022-12-26T12:06:56.623Z,13.70
2022-12-26T12:07:56.691Z,13.67
2022-12-26T12:09:00.853Z,13.58
2022-12-26T12:09:56.587Z,13.56
2022-12-26T12:10:56.551Z,13.52
2022-12-26T12:11:56.543Z,13.52
2022-12-26T12:12:56.493Z,13.54
2022-12-26T12:13:56.514Z,13.54
2022-12-26T12:14:56.491Z,13.54
2022-12-26T12:15:56.431Z,13.51
2022-12-26T12:16:56.401Z,13.54
2022-12-26T12:17:56.398Z,13.49
2022-12-26T12:18:56.357Z,13.54
2022-12-26T12:19:56.332Z,13.56
2022-12-26T12:20:56.323Z,13.54
2022-12-26T12:21:56.305Z,13.56
2022-12-26T12:22:56.315Z,13.51
2022-12-26T12:23:56.263Z,13.61
2022-12-26T12:24:56.232Z,13.49
2022-12-26T12:25:56.219Z,13.59
2022-12-26T12:27:01.603Z,13.51
2022-12-26T12:27:56.160Z,13.59
2022-12-26T12:28:56.149Z,13.54
2022-12-26T12:29:56.117Z,13.52
2022-12-26T12:30:56.115Z,13.46
2022-12-26T12:31:56.082Z,13.49
2022-12-26T12:32:57.324Z,13.51
2022-12-26T12:33:56.044Z,13.41
2022-12-26T12:34:56.031Z,13.40
2022-12-26T12:35:55.997Z,13.47
2022-12-26T12:36:55.973Z,13.49
2022-12-26T12:37:55.936Z,13.43
2022-12-26T12:38:56.765Z,13.44
2022-12-26T12:39:55.899Z,13.41
2022-12-26T12:40:55.879Z,13.38
2022-12-26T12:41:55.860Z,13.41
2022-12-26T12:42:55.839Z,13.37
2022-12-26T12:43:55.825Z,13.38
2022-12-26T12:44:56.585Z,13.33
2022-12-26T12:45:55.770Z,13.37
2022-12-26T12:46:55.755Z,13.36
2022-12-26T12:47:55.782Z,13.32
2022-12-26T12:48:55.707Z,13.33
2022-12-26T12:49:55.697Z,13.29
2022-12-26T12:50:56.931Z,13.27
2022-12-26T12:51:55.633Z,13.30
2022-12-26T12:52:55.655Z,13.29
2022-12-26T12:53:55.612Z,13.29